createdAt,value
2019-06-07T00:00:59.017Z,97116.05
2019-06-07T00:06:02.424Z,97101.53
2019-06-07T00:11:07.646Z,97106.80
2019-06-07T00:16:14.177Z,97092.30
2019-06-07T00:21:17.843Z,97096.17
2019-06-07T00:26:21.886Z,97097.20
2019-06-07T00:31:25.294Z,97076.70
2019-06-07T00:36:28.732Z,97069.94
2019-06-07T00:41:32.096Z,97075.05
2019-06-07T00:46:35.496Z,97061.84
2019-06-07T00:51:49.922Z,97058.00
2019-06-07T00:56:44.300Z,97056.21
2019-06-07T01:01:48.041Z,97054.32
2019-06-07T01:06:51.466Z,97043.06
2019-06-07T01:11:55.018Z,97034.17
2019-06-07T01:17:22.204Z,97035.06
2019-06-07T01:22:03.847Z,97037.83
2019-06-07T01:27:07.566Z,97037.60
2019-06-07T01:32:11.017Z,97030.22
2019-06-07T01:37:14.440Z,97019.30
2019-06-07T01:42:19.906Z,97010.73
2019-06-07T01:47:25.594Z,97007.74
2019-06-07T01:52:29.744Z,97003.66
2019-06-07T01:57:45.454Z,97006.33
2019-06-07T02:02:38.460Z,97000.86
2019-06-07T02:07:41.809Z,96997.66
2019-06-07T02:12:45.200Z,97001.74
2019-06-07T02:17:48.598Z,96997.11
2019-06-07T02:22:51.988Z,96990.29
2019-06-07T02:28:25.777Z,96991.48
2019-06-07T02:33:01.241Z,96992.28
2019-06-07T02:38:04.990Z,96998.89
2019-06-07T02:43:08.436Z,97003.34
2019-06-07T02:48:11.865Z,97004.55
2019-06-07T02:53:15.267Z,96999.46
2019-06-07T02:58:18.650Z,96990.53
2019-06-07T03:03:22.575Z,96981.98
2019-06-07T03:08:30.829Z,96996.30
2019-06-07T03:13:37.511Z,96992.50
2019-06-07T03:18:50.287Z,96991.10
2019-06-07T03:23:57.201Z,96979.17
2019-06-07T03:29:00.878Z,96987.93
2019-06-07T03:34:04.346Z,96998.02
2019-06-07T03:39:07.811Z,97002.59
2019-06-07T03:44:11.208Z,96995.05
2019-06-07T03:49:14.913Z,96996.56
2019-06-07T03:54:18.314Z,96993.77
2019-06-07T03:59:21.707Z,96999.80
2019-06-07T04:04:25.353Z,96999.28
2019-06-07T04:09:31.497Z,97004.75
2019-06-07T04:14:35.194Z,97009.91
2019-06-07T04:19:43.137Z,97013.91
2019-06-07T04:24:44.145Z,97013.31
2019-06-07T04:30:06.359Z,97013.14
2019-06-07T04:34:52.668Z,97010.44
2019-06-07T04:39:56.840Z,97011.73
2019-06-07T04:45:00.627Z,97011.03
2019-06-07T04:50:05.455Z,97005.48
2019-06-07T04:55:09.232Z,96999.62
2019-06-07T05:00:46.941Z,97009.41
2019-06-07T05:05:18.013Z,97001.84
2019-06-07T05:10:21.409Z,96997.53
2019-06-07T05:15:24.885Z,96991.39
2019-06-07T05:20:28.291Z,96997.39
2019-06-07T05:25:33.544Z,96979.17
2019-06-07T05:35:44.535Z,96986.69
2019-06-07T05:40:48.959Z,96986.03
2019-06-07T05:45:52.756Z,96989.87
2019-06-07T05:50:57.464Z,96984.31
2019-06-07T05:56:01.293Z,96972.88
2019-06-07T06:01:41.598Z,96961.28
2019-06-07T06:06:09.876Z,96958.62
2019-06-07T06:11:13.269Z,96948.84
2019-06-07T06:16:16.673Z,96948.84
2019-06-07T06:21:20.562Z,96944.95
2019-06-07T06:26:24.131Z,96943.98
2019-06-07T06:31:27.531Z,96946.77
2019-06-07T06:36:30.926Z,96943.91
2019-06-07T06:41:48.458Z,96932.70
2019-06-07T06:46:44.783Z,96934.88
2019-06-07T06:51:50.077Z,96927.63
2019-06-07T06:56:52.687Z,96924.77
2019-06-07T07:01:55.663Z,96925.33
2019-06-07T07:06:59.292Z,96925.53
2019-06-07T07:12:11.964Z,96918.55
2019-06-07T07:17:08.131Z,96916.69
2019-06-07T07:22:11.755Z,96911.20
2019-06-07T07:27:15.509Z,96909.98
2019-06-07T07:32:19.244Z,96899.35
2019-06-07T07:37:22.651Z,96896.70
2019-06-07T07:42:26.029Z,96895.91
2019-06-07T07:47:29.424Z,96888.70
2019-06-07T07:52:33.092Z,96880.35
2019-06-07T07:57:36.492Z,96869.73
2019-06-07T08:02:39.895Z,96856.80
2019-06-07T08:07:43.286Z,96858.89
2019-06-07T08:13:11.836Z,96853.72
2019-06-07T08:17:58.024Z,96839.52
2019-06-07T08:22:59.776Z,96837.70
2019-06-07T08:28:02.451Z,96832.84
2019-06-07T08:33:25.503Z,96822.88
2019-06-07T08:38:25.883Z,96809.58
2019-06-07T08:43:20.775Z,96809.72
2019-06-07T08:48:28.014Z,96804.44
2019-06-07T08:53:26.518Z,96792.88
2019-06-07T08:58:29.918Z,96798.69
2019-06-07T09:03:33.316Z,96791.73
2019-06-07T09:08:36.705Z,96791.33
2019-06-07T09:13:40.114Z,96780.45
2019-06-07T09:18:45.131Z,96762.50
2019-06-07T09:23:48.690Z,96752.23
2019-06-07T09:28:52.954Z,96754.25
2019-06-07T09:33:59.808Z,96749.13
2019-06-07T09:39:07.414Z,96740.73
2019-06-07T09:44:21.092Z,96733.08
2019-06-07T09:49:28.573Z,96716.05
2019-06-07T09:59:23.787Z,96711.56
2019-06-07T10:04:31.316Z,96713.22
2019-06-07T10:14:39.038Z,96703.28
2019-06-07T10:19:42.428Z,96694.61
2019-06-07T10:24:45.822Z,96688.99
2019-06-07T10:29:49.217Z,96690.31
2019-06-07T10:34:52.692Z,96682.86
2019-06-07T10:39:56.084Z,96681.34
2019-06-07T10:45:02.065Z,96676.67
2019-06-07T10:50:06.496Z,96679.44
2019-06-07T10:55:10.626Z,96683.54
2019-06-07T11:00:16.488Z,96673.08
2019-06-07T11:05:20.223Z,96666.59
2019-06-07T11:10:23.928Z,96660.63
2019-06-07T11:15:27.321Z,96645.66
2019-06-07T11:20:30.791Z,96648.52
2019-06-07T11:25:34.186Z,96657.89
2019-06-07T11:30:37.894Z,96648.20
2019-06-07T11:35:41.289Z,96639.13
2019-06-07T11:40:44.672Z,96647.80
2019-06-07T11:45:48.064Z,96644.96
2019-06-07T11:50:51.482Z,96643.03
2019-06-07T11:55:54.897Z,96630.28
2019-06-07T12:00:58.404Z,96630.91
2019-06-07T12:06:01.900Z,96626.73
2019-06-07T12:11:05.289Z,96612.09
2019-06-07T12:16:09.126Z,96609.80
2019-06-07T12:21:13.654Z,96598.66
2019-06-07T12:26:18.477Z,96590.62
2019-06-07T12:31:22.001Z,96572.61
2019-06-07T12:36:25.392Z,96568.61
2019-06-07T12:41:28.849Z,96564.20
2019-06-07T12:46:32.196Z,96555.16
2019-06-07T12:51:35.594Z,96543.90
2019-06-07T12:56:38.993Z,96535.03
2019-06-07T13:01:42.726Z,96540.87
2019-06-07T13:06:46.121Z,96533.98
2019-06-07T13:11:49.518Z,96528.34
2019-06-07T13:16:53.173Z,96523.70
2019-06-07T13:21:56.898Z,96523.44
2019-06-07T13:27:00.624Z,96519.11
2019-06-07T13:32:04.264Z,96510.97
2019-06-07T13:37:07.958Z,96496.63
2019-06-07T13:42:11.353Z,96503.19
2019-06-07T13:47:14.754Z,96506.69
2019-06-07T13:52:18.232Z,96506.22
2019-06-07T13:57:22.223Z,96500.08
2019-06-07T14:02:27.472Z,96487.47
2019-06-07T14:07:31.217Z,96485.33
2019-06-07T14:12:34.609Z,96475.27
2019-06-07T14:17:38.006Z,96490.48
2019-06-07T14:22:41.484Z,96474.91
2019-06-07T14:27:45.175Z,96473.36
2019-06-07T14:32:48.896Z,96473.63
2019-06-07T14:37:52.365Z,96463.72
2019-06-07T14:42:55.705Z,96464.44
2019-06-07T14:47:59.103Z,96455.09
2019-06-07T14:53:02.493Z,96451.16
2019-06-07T14:58:05.890Z,96436.20
2019-06-07T15:03:09.419Z,96437.06
2019-06-07T15:08:12.818Z,96435.02
2019-06-07T15:13:16.208Z,96422.94
2019-06-07T15:18:19.668Z,96421.73
2019-06-07T15:23:23.311Z,96410.16
2019-06-07T15:28:27.656Z,96404.95
2019-06-07T15:33:31.832Z,96395.59
2019-06-07T15:38:37.059Z,96381.82
2019-06-07T15:43:40.896Z,96384.47
2019-06-07T15:48:44.617Z,96382.45
2019-06-07T15:53:48.021Z,96370.67
2019-06-07T15:58:51.472Z,96363.20
2019-06-07T16:03:54.868Z,96364.63
2019-06-07T16:08:58.263Z,96357.48
2019-06-07T16:14:01.653Z,96359.89
2019-06-07T16:19:05.138Z,96357.77
2019-06-07T16:24:08.541Z,96350.02
2019-06-07T16:29:11.965Z,96346.89
2019-06-07T16:34:15.357Z,96346.04
2019-06-07T16:39:18.757Z,96346.32
2019-06-07T16:44:22.155Z,96341.23
2019-06-07T16:49:25.547Z,96348.34
2019-06-07T16:54:29.207Z,96348.64
2019-06-07T16:59:32.652Z,96361.70
2019-06-07T17:04:37.380Z,96369.98
2019-06-07T17:09:42.134Z,96362.97
2019-06-07T17:14:46.629Z,96364.38
2019-06-07T17:19:50.026Z,96363.92
2019-06-07T17:24:53.420Z,96378.81
2019-06-07T17:29:57.106Z,96369.33
2019-06-07T17:35:00.734Z,96368.59
2019-06-07T17:40:06.117Z,96365.89
2019-06-07T17:45:10.350Z,96361.43
2019-06-07T17:50:14.404Z,96363.09
2019-06-07T17:55:19.042Z,96360.84
2019-06-07T18:00:33.329Z,96357.41
2019-06-07T18:05:28.634Z,96353.09
2019-06-07T18:10:37.881Z,96369.23
2019-06-07T18:15:52.951Z,96371.77
2019-06-07T18:20:53.479Z,96381.19
2019-06-07T18:25:57.274Z,96377.17
2019-06-07T18:31:00.905Z,96375.44
2019-06-07T18:36:05.030Z,96371.73
2019-06-07T18:41:08.426Z,96384.50
2019-06-07T18:46:11.823Z,96405.58
2019-06-07T18:51:15.411Z,96413.91
2019-06-07T18:56:19.024Z,96414.53
2019-06-07T19:01:22.421Z,96424.38
2019-06-07T19:06:25.845Z,96429.89
2019-06-07T19:11:29.278Z,96442.22
2019-06-07T19:16:32.679Z,96450.27
2019-06-07T19:21:36.089Z,96464.09
2019-06-07T19:26:39.486Z,96470.30
2019-06-07T19:31:42.884Z,96493.27
2019-06-07T19:36:49.043Z,96503.37
2019-06-07T19:41:54.027Z,96513.33
2019-06-07T19:46:58.491Z,96518.55
2019-06-07T19:52:03.153Z,96535.38
2019-06-07T19:57:06.945Z,96561.71
2019-06-07T20:02:10.398Z,96557.53
2019-06-07T20:07:13.790Z,96570.66
2019-06-07T20:12:17.189Z,96600.30
2019-06-07T20:17:20.751Z,96608.45
2019-06-07T20:22:24.147Z,96596.44
2019-06-07T20:27:27.790Z,96613.08
2019-06-07T20:32:31.202Z,96626.00
2019-06-07T20:37:34.859Z,96638.71
2019-06-07T20:42:38.544Z,96715.70
2019-06-07T20:47:41.943Z,96758.50
2019-06-07T20:52:45.337Z,96797.52
2019-06-07T20:57:48.734Z,96838.61
2019-06-07T21:02:52.139Z,96856.93
2019-06-07T21:07:55.857Z,96902.64
2019-06-07T21:12:59.736Z,96946.13
2019-06-07T21:18:04.912Z,96970.42
2019-06-07T21:23:09.020Z,96988.20
2019-06-07T21:28:12.798Z,97009.07
2019-06-07T21:33:16.191Z,97053.63
2019-06-07T21:38:19.827Z,97100.08
2019-06-07T21:43:23.231Z,97096.22
2019-06-07T21:48:26.684Z,97115.02
2019-06-07T21:53:30.084Z,97117.67
2019-06-07T21:58:33.752Z,97135.28
2019-06-07T22:03:37.146Z,97152.31
2019-06-07T22:08:41.642Z,97187.81
2019-06-07T22:13:45.402Z,97228.50
2019-06-07T22:18:48.774Z,97234.95
2019-06-07T22:23:52.498Z,97242.19
2019-06-07T22:28:56.358Z,97266.11
2019-06-07T22:33:59.751Z,97280.25
2019-06-07T22:39:03.618Z,97264.23
2019-06-07T22:44:07.163Z,97278.22
2019-06-07T22:49:11.375Z,97300.12
2019-06-07T22:54:16.070Z,97298.90
2019-06-07T22:59:20.608Z,97307.09
2019-06-07T23:04:24.079Z,97315.39
2019-06-07T23:09:27.485Z,97319.63
2019-06-07T23:14:30.978Z,97327.39
2019-06-07T23:19:34.608Z,97336.05
2019-06-07T23:24:38.005Z,97345.78
2019-06-07T23:29:41.400Z,97348.63
2019-06-07T23:34:44.826Z,97356.80
2019-06-07T23:39:48.523Z,97347.03
2019-06-07T23:44:52.244Z,97375.27
2019-06-07T23:49:55.641Z,97384.52
2019-06-07T23:54:59.033Z,97377.18
